Time;durP1;ratioP1;P1;durP2;ratioP2;P2;SDS_P1;SDS_P2;PMS_P1;PMS_P2;Temp;Humidity;BMP_temperature;BMP_pressure;BME280_temperature;BME280_humidity;BME280_pressure;Samples;Min_cycle;Max_cycle;Signal;HPM_P1;HPM_P2
2021/03/05 00:02:22;;;;;;;3.87;3.37;;;;;;;;;;4972237;28;20822;-62
2021/03/05 00:04:49;;;;;;;4.40;3.60;;;;;;;;;;4974453;28;20451;-63
2021/03/05 00:07:15;;;;;;;4.17;3.60;;;;;;;;;;4975220;28;20839;-63
2021/03/05 00:09:42;;;;;;;5.17;3.10;;;;;;;;;;4975720;28;20487;-62
2021/03/05 00:12:10;;;;;;;3.80;3.50;;;;;;;;;;4975550;28;20482;-62
2021/03/05 00:14:37;;;;;;;4.87;3.63;;;;;;;;;;4995254;28;20451;-63
2021/03/05 00:17:05;;;;;;;4.70;3.10;;;;;;;;;;4979331;28;20451;-62
2021/03/05 00:19:31;;;;;;;6.33;4.07;;;;;;;;;;4976015;28;20474;-62
2021/03/05 00:21:58;;;;;;;6.63;3.67;;;;;;;;;;4974690;28;20512;-62
2021/03/05 00:24:24;;;;;;;4.83;3.47;;;;;;;;;;4975666;28;20849;-61
2021/03/05 00:26:51;;;;;;;3.93;3.53;;;;;;;;;;4975079;28;20859;-64
2021/03/05 00:29:18;;;;;;;4.30;3.90;;;;;;;;;;4975850;28;20475;-62
2021/03/05 00:31:44;;;;;;;4.60;3.47;;;;;;;;;;4975115;28;20467;-61
2021/03/05 00:34:12;;;;;;;3.33;3.10;;;;;;;;;;4976939;28;20490;-64
2021/03/05 00:36:38;;;;;;;3.27;3.03;;;;;;;;;;4974670;28;20470;-63
2021/03/05 00:39:05;;;;;;;4.03;3.37;;;;;;;;;;4976245;28;20475;-62
2021/03/05 00:41:32;;;;;;;6.97;3.63;;;;;;;;;;4975231;28;20823;-62
2021/03/05 00:43:59;;;;;;;6.13;3.47;;;;;;;;;;4975621;28;20451;-62
2021/03/05 00:46:26;;;;;;;5.33;3.63;;;;;;;;;;4974548;28;20455;-63
2021/03/05 00:48:52;;;;;;;5.73;3.60;;;;;;;;;;4975154;28;20490;-62
2021/03/05 00:51:20;;;;;;;7.07;3.93;;;;;;;;;;4974564;28;20456;-62
2021/03/05 00:53:46;;;;;;;6.33;3.77;;;;;;;;;;4975228;28;20490;-62
2021/03/05 00:56:13;;;;;;;3.93;3.33;;;;;;;;;;4974831;28;20462;-62
2021/03/05 00:58:40;;;;;;;4.33;3.43;;;;;;;;;;4989073;28;20470;-64
2021/03/05 01:01:06;;;;;;;7.93;4.30;;;;;;;;;;4983381;28;20463;-62
2021/03/05 01:03:33;;;;;;;4.40;3.17;;;;;;;;;;4975026;28;20450;-62
2021/03/05 01:05:59;;;;;;;4.67;3.20;;;;;;;;;;4974723;28;20889;-62
2021/03/05 01:08:27;;;;;;;7.70;3.73;;;;;;;;;;4975227;28;20475;-62
2021/03/05 01:10:54;;;;;;;5.90;3.97;;;;;;;;;;4974803;28;20446;-64
2021/03/05 01:13:20;;;;;;;5.60;3.63;;;;;;;;;;4974495;28;20883;-63
2021/03/05 01:15:47;;;;;;;7.33;3.80;;;;;;;;;;4954937;28;20448;-64
2021/03/05 01:18:13;;;;;;;5.73;3.60;;;;;;;;;;4974854;28;20466;-64
2021/03/05 01:20:40;;;;;;;4.77;4.10;;;;;;;;;;4974158;28;20452;-63
2021/03/05 01:23:08;;;;;;;6.43;3.70;;;;;;;;;;4985320;28;20451;-65
2021/03/05 01:25:36;;;;;;;6.47;3.33;;;;;;;;;;4983030;28;20459;-63
2021/03/05 01:28:02;;;;;;;9.47;4.23;;;;;;;;;;4974188;28;20486;-63
2021/03/05 01:30:29;;;;;;;3.80;3.50;;;;;;;;;;4964747;28;20456;-62
2021/03/05 01:32:56;;;;;;;3.90;3.60;;;;;;;;;;4969359;28;20538;-62
2021/03/05 01:35:23;;;;;;;5.70;3.97;;;;;;;;;;4974803;28;20455;-63
2021/03/05 01:37:50;;;;;;;5.80;4.00;;;;;;;;;;4973980;28;20806;-62
2021/03/05 01:40:18;;;;;;;4.10;3.80;;;;;;;;;;4957017;28;20472;-62
2021/03/05 01:42:45;;;;;;;4.80;3.63;;;;;;;;;;4976322;28;20442;-62
2021/03/05 01:45:13;;;;;;;4.70;4.10;;;;;;;;;;4984111;28;20954;-62
2021/03/05 01:47:40;;;;;;;4.63;4.20;;;;;;;;;;4973811;28;20522;-64
2021/03/05 01:50:09;;;;;;;4.10;3.70;;;;;;;;;;4973405;28;20479;-65
2021/03/05 01:52:35;;;;;;;4.33;3.93;;;;;;;;;;4973714;28;20991;-62
2021/03/05 01:55:02;;;;;;;8.37;4.40;;;;;;;;;;4974040;28;20451;-62
2021/03/05 01:57:29;;;;;;;8.67;3.70;;;;;;;;;;4973964;28;20452;-62
2021/03/05 01:59:56;;;;;;;4.63;4.17;;;;;;;;;;4973700;28;20483;-62
2021/03/05 02:02:24;;;;;;;5.00;4.10;;;;;;;;;;4973446;28;20452;-64
2021/03/05 02:04:50;;;;;;;4.30;3.83;;;;;;;;;;4973727;28;20455;-62
2021/03/05 02:07:17;;;;;;;4.47;4.07;;;;;;;;;;4973816;28;20511;-62
2021/03/05 02:09:44;;;;;;;8.17;4.73;;;;;;;;;;4973381;28;20526;-62
2021/03/05 02:12:11;;;;;;;4.13;3.70;;;;;;;;;;4983960;28;20455;-62
2021/03/05 02:14:37;;;;;;;5.20;4.17;;;;;;;;;;4973107;28;20447;-64
2021/03/05 02:17:09;;;;;;;5.07;3.73;;;;;;;;;;4973424;28;20451;-63
2021/03/05 02:20:00;;;;;;;6.40;4.57;;;;;;;;;;4973361;28;20467;-62
2021/03/05 02:22:39;;;;;;;7.50;4.30;;;;;;;;;;4960939;28;20867;-62
2021/03/05 02:25:18;;;;;;;5.20;4.17;;;;;;;;;;4959230;28;20451;-62
2021/03/05 02:27:52;;;;;;;6.47;4.10;;;;;;;;;;4972573;28;20533;-62
2021/03/05 02:30:46;;;;;;;10.17;5.27;;;;;;;;;;4972658;28;20529;-62
2021/03/05 02:33:16;;;;;;;5.33;3.90;;;;;;;;;;4972851;28;20502;-63
2021/03/05 02:35:44;;;;;;;7.33;4.63;;;;;;;;;;4972931;28;20447;-63
2021/03/05 02:38:11;;;;;;;7.37;5.17;;;;;;;;;;4973358;28;20467;-63
2021/03/05 02:40:39;;;;;;;4.27;3.87;;;;;;;;;;4973267;28;20479;-63
2021/03/05 02:43:07;;;;;;;5.90;3.63;;;;;;;;;;4974477;28;20456;-62
2021/03/05 02:45:35;;;;;;;5.80;3.93;;;;;;;;;;4982992;28;20460;-62
2021/03/05 02:48:03;;;;;;;6.20;4.00;;;;;;;;;;4973675;28;20459;-62
2021/03/05 02:50:31;;;;;;;4.50;3.60;;;;;;;;;;4968880;28;20449;-62
2021/03/05 02:53:01;;;;;;;5.23;3.80;;;;;;;;;;4964333;28;20490;-62
2021/03/05 02:55:29;;;;;;;8.23;4.30;;;;;;;;;;4972679;28;20967;-63
2021/03/05 02:57:58;;;;;;;8.70;4.00;;;;;;;;;;4972700;28;20947;-63
2021/03/05 03:00:25;;;;;;;5.77;4.03;;;;;;;;;;4965112;28;20475;-63
2021/03/05 03:02:53;;;;;;;5.07;4.53;;;;;;;;;;4973297;28;20450;-63
2021/03/05 03:05:20;;;;;;;4.70;4.27;;;;;;;;;;4973134;28;20447;-63
2021/03/05 03:07:48;;;;;;;8.90;4.37;;;;;;;;;;4972978;28;20481;-64
2021/03/05 03:10:15;;;;;;;5.43;4.43;;;;;;;;;;4972178;28;20482;-63
2021/03/05 03:12:43;;;;;;;5.63;4.30;;;;;;;;;;4972843;28;20538;-63
2021/03/05 03:15:11;;;;;;;4.60;4.07;;;;;;;;;;4972423;28;20829;-63
2021/03/05 03:17:38;;;;;;;5.43;4.30;;;;;;;;;;4974396;28;20462;-63
2021/03/05 03:20:05;;;;;;;4.97;4.10;;;;;;;;;;4973529;28;20840;-64
2021/03/05 03:22:32;;;;;;;7.27;3.90;;;;;;;;;;4972841;28;20443;-62
2021/03/05 03:25:00;;;;;;;6.40;3.83;;;;;;;;;;4961648;28;20460;-65
2021/03/05 03:27:27;;;;;;;3.93;3.67;;;;;;;;;;4953274;29;20456;-62
2021/03/05 03:29:54;;;;;;;4.57;3.97;;;;;;;;;;4967483;28;20851;-62
2021/03/05 03:32:21;;;;;;;6.47;4.50;;;;;;;;;;4972758;28;20825;-62
2021/03/05 03:34:47;;;;;;;6.37;4.03;;;;;;;;;;4972478;28;20451;-65
2021/03/05 03:37:14;;;;;;;4.90;4.30;;;;;;;;;;4972487;28;20514;-62
2021/03/05 03:39:41;;;;;;;8.90;4.83;;;;;;;;;;4975734;28;20479;-62
2021/03/05 03:42:08;;;;;;;8.53;4.53;;;;;;;;;;4976352;28;20677;-64
2021/03/05 03:44:35;;;;;;;6.73;4.57;;;;;;;;;;4976213;28;20458;-62
2021/03/05 03:47:02;;;;;;;5.40;4.80;;;;;;;;;;4976089;28;20451;-64
2021/03/05 03:49:32;;;;;;;8.80;4.57;;;;;;;;;;4975854;28;20471;-62
2021/03/05 03:52:01;;;;;;;5.70;4.53;;;;;;;;;;4957828;28;21025;-62
2021/03/05 03:54:28;;;;;;;6.90;4.50;;;;;;;;;;4963798;28;20494;-62
2021/03/05 03:56:56;;;;;;;5.53;4.23;;;;;;;;;;4976047;28;20452;-65
2021/03/05 03:59:24;;;;;;;4.40;4.00;;;;;;;;;;4976121;28;20979;-65
2021/03/05 04:01:50;;;;;;;4.50;4.03;;;;;;;;;;4975665;28;20451;-65
2021/03/05 04:04:18;;;;;;;8.37;4.30;;;;;;;;;;4976079;28;20452;-66
2021/03/05 04:06:45;;;;;;;5.03;4.40;;;;;;;;;;4975199;28;20459;-65
2021/03/05 04:09:13;;;;;;;6.27;4.60;;;;;;;;;;4975883;28;20541;-65
2021/03/05 04:11:40;;;;;;;6.77;4.30;;;;;;;;;;4975184;28;20455;-65
2021/03/05 04:14:07;;;;;;;5.73;4.10;;;;;;;;;;4975874;28;20487;-64
2021/03/05 04:16:34;;;;;;;13.50;5.10;;;;;;;;;;4975044;28;20459;-64
2021/03/05 04:19:01;;;;;;;6.63;4.70;;;;;;;;;;4975781;28;20479;-65
2021/03/05 04:21:29;;;;;;;7.40;4.20;;;;;;;;;;4991078;28;21111;-65
2021/03/05 04:23:56;;;;;;;6.23;4.77;;;;;;;;;;4975369;28;20447;-66
2021/03/05 04:26:23;;;;;;;5.60;4.50;;;;;;;;;;4974992;28;20466;-65
2021/03/05 04:28:49;;;;;;;5.53;4.30;;;;;;;;;;4975313;28;20471;-66
2021/03/05 04:31:16;;;;;;;7.83;4.63;;;;;;;;;;4981664;28;20455;-66
2021/03/05 04:33:43;;;;;;;6.77;5.20;;;;;;;;;;4981802;28;20594;-64
2021/03/05 04:36:10;;;;;;;8.40;5.10;;;;;;;;;;4987564;28;20458;-65
2021/03/05 04:38:37;;;;;;;7.53;5.10;;;;;;;;;;4975253;28;20479;-66
2021/03/05 04:41:03;;;;;;;5.17;4.67;;;;;;;;;;4985627;28;20800;-65
2021/03/05 04:43:30;;;;;;;9.07;5.30;;;;;;;;;;4980939;28;20447;-65
2021/03/05 04:45:56;;;;;;;4.97;4.57;;;;;;;;;;4974792;28;20974;-66
2021/03/05 04:48:23;;;;;;;7.03;5.30;;;;;;;;;;4974726;28;20461;-64
2021/03/05 04:50:50;;;;;;;5.93;4.80;;;;;;;;;;4978358;28;20459;-66
2021/03/05 04:53:17;;;;;;;9.23;5.40;;;;;;;;;;4975234;28;20487;-64
2021/03/05 04:55:44;;;;;;;5.50;5.03;;;;;;;;;;4975085;28;20455;-65
2021/03/05 04:58:10;;;;;;;8.60;5.80;;;;;;;;;;4974513;28;20464;-65
2021/03/05 05:00:37;;;;;;;7.33;5.27;;;;;;;;;;4975267;28;20455;-66
2021/03/05 05:03:04;;;;;;;6.23;4.60;;;;;;;;;;4974338;28;20977;-65
2021/03/05 05:05:30;;;;;;;5.53;5.10;;;;;;;;;;4974232;28;20455;-66
2021/03/05 05:07:58;;;;;;;6.37;5.63;;;;;;;;;;4974893;28;20456;-67
2021/03/05 05:10:25;;;;;;;8.33;5.97;;;;;;;;;;4974769;28;20475;-67
2021/03/05 05:12:51;;;;;;;8.03;4.90;;;;;;;;;;4974665;28;20487;-65
2021/03/05 05:15:18;;;;;;;6.07;5.57;;;;;;;;;;4974525;28;20451;-66
2021/03/05 05:17:45;;;;;;;7.10;5.80;;;;;;;;;;4974444;28;20458;-66
2021/03/05 05:20:11;;;;;;;12.10;6.30;;;;;;;;;;4976291;28;20476;-62
2021/03/05 05:22:38;;;;;;;8.03;5.97;;;;;;;;;;4978361;28;20463;-66
2021/03/05 05:25:07;;;;;;;8.07;6.30;;;;;;;;;;4974640;28;20459;-67
2021/03/05 05:27:34;;;;;;;8.57;6.50;;;;;;;;;;4974135;28;20455;-65
2021/03/05 05:30:00;;;;;;;7.70;5.67;;;;;;;;;;4974476;28;20522;-64
2021/03/05 05:32:27;;;;;;;7.03;6.00;;;;;;;;;;4973814;28;20478;-66
2021/03/05 05:34:54;;;;;;;6.00;5.50;;;;;;;;;;4974323;28;20459;-66
2021/03/05 05:37:20;;;;;;;11.30;5.60;;;;;;;;;;4973658;28;20816;-66
2021/03/05 05:39:47;;;;;;;8.60;6.47;;;;;;;;;;4974069;28;20542;-67
2021/03/05 05:42:16;;;;;;;9.33;6.33;;;;;;;;;;4989763;28;20869;-65
2021/03/05 05:44:43;;;;;;;9.70;6.10;;;;;;;;;;4973839;28;20447;-67
2021/03/05 05:47:10;;;;;;;8.93;6.10;;;;;;;;;;4973797;28;20943;-67
2021/03/05 05:49:37;;;;;;;7.40;6.60;;;;;;;;;;4973151;28;21057;-66
2021/03/05 05:52:05;;;;;;;6.50;6.00;;;;;;;;;;4974290;28;20462;-66
2021/03/05 05:54:32;;;;;;;12.23;6.10;;;;;;;;;;4973343;28;20494;-66
2021/03/05 05:56:59;;;;;;;7.47;5.63;;;;;;;;;;4973585;28;20955;-64
2021/03/05 05:59:27;;;;;;;6.97;6.37;;;;;;;;;;4973830;28;20479;-66
2021/03/05 06:01:54;;;;;;;8.47;6.67;;;;;;;;;;4973470;28;21096;-66
2021/03/05 06:04:20;;;;;;;6.47;5.87;;;;;;;;;;4972956;28;20451;-67
2021/03/05 06:06:47;;;;;;;11.47;6.50;;;;;;;;;;4973169;28;20951;-66
2021/03/05 06:09:14;;;;;;;7.10;6.50;;;;;;;;;;4973415;28;20904;-66
2021/03/05 06:11:41;;;;;;;8.17;6.83;;;;;;;;;;4974172;28;20474;-63
2021/03/05 06:14:09;;;;;;;6.80;6.20;;;;;;;;;;4973451;28;20533;-63
2021/03/05 06:16:51;;;;;;;6.80;6.20;;;;;;;;;;4974764;28;20482;-63
2021/03/05 06:19:19;;;;;;;7.57;6.50;;;;;;;;;;4974551;28;20525;-63
2021/03/05 06:21:45;;;;;;;8.83;6.43;;;;;;;;;;4985593;28;20451;-64
2021/03/05 06:24:12;;;;;;;9.90;6.60;;;;;;;;;;4976709;28;20482;-65
2021/03/05 06:26:48;;;;;;;8.87;6.03;;;;;;;;;;4973260;28;20463;-65
2021/03/05 06:29:15;;;;;;;8.30;6.13;;;;;;;;;;4963623;28;20737;-65
2021/03/05 06:31:51;;;;;;;7.43;6.73;;;;;;;;;;4973471;28;20451;-65
2021/03/05 06:34:18;;;;;;;6.60;6.10;;;;;;;;;;4972689;28;20483;-64
2021/03/05 06:36:44;;;;;;;8.57;6.07;;;;;;;;;;4973090;28;20811;-65
2021/03/05 06:39:11;;;;;;;6.50;5.60;;;;;;;;;;4972827;28;21002;-65
2021/03/05 06:41:37;;;;;;;8.93;6.07;;;;;;;;;;4973360;28;20455;-64
2021/03/05 06:44:05;;;;;;;5.93;5.30;;;;;;;;;;4977925;28;20521;-65
2021/03/05 06:46:35;;;;;;;9.37;6.10;;;;;;;;;;4975990;28;20960;-66
2021/03/05 06:49:04;;;;;;;7.40;4.50;;;;;;;;;;4972969;28;20472;-64
2021/03/05 06:51:31;;;;;;;6.97;4.70;;;;;;;;;;4972653;28;20491;-64
2021/03/05 06:54:07;;;;;;;5.60;5.10;;;;;;;;;;4972882;28;20458;-64
2021/03/05 06:56:35;;;;;;;9.07;5.60;;;;;;;;;;4973114;28;20550;-64
2021/03/05 06:59:05;;;;;;;5.33;3.40;;;;;;;;;;4971375;28;20495;-66
2021/03/05 07:01:32;;;;;;;4.93;2.10;;;;;;;;;;4972513;28;20967;-66
2021/03/05 07:04:11;;;;;;;3.60;2.00;;;;;;;;;;4971383;28;20859;-68
2021/03/05 07:06:37;;;;;;;2.60;1.93;;;;;;;;;;4972736;28;20443;-66
2021/03/05 07:09:06;;;;;;;5.63;1.90;;;;;;;;;;4971055;28;20501;-67
2021/03/05 07:11:38;;;;;;;2.83;1.50;;;;;;;;;;4987247;23;20594;-61
2021/03/05 07:14:05;;;;;;;4.23;2.40;;;;;;;;;;4969548;28;20474;-61
2021/03/05 07:16:38;;;;;;;3.83;1.97;;;;;;;;;;4971699;28;20479;-61
2021/03/05 07:19:05;;;;;;;6.20;2.40;;;;;;;;;;4970860;28;20510;-63
2021/03/05 07:21:34;;;;;;;3.10;2.00;;;;;;;;;;4970793;28;20545;-61
2021/03/05 07:24:02;;;;;;;3.40;1.90;;;;;;;;;;4972289;28;20494;-61
2021/03/05 07:26:31;;;;;;;3.50;2.27;;;;;;;;;;4971028;28;20977;-61
2021/03/05 07:28:58;;;;;;;3.20;2.10;;;;;;;;;;4970976;28;20474;-61
2021/03/05 07:31:25;;;;;;;2.60;1.80;;;;;;;;;;4978174;28;20474;-61
2021/03/05 07:33:54;;;;;;;3.97;2.23;;;;;;;;;;4979903;28;20451;-61
2021/03/05 07:36:23;;;;;;;2.50;1.70;;;;;;;;;;4972718;28;20459;-62
2021/03/05 07:38:52;;;;;;;2.97;1.87;;;;;;;;;;4971960;28;20467;-61
2021/03/05 07:41:20;;;;;;;2.67;1.50;;;;;;;;;;4970464;28;20475;-61
2021/03/05 07:43:47;;;;;;;2.30;2.03;;;;;;;;;;4972462;28;20484;-61
2021/03/05 07:46:14;;;;;;;4.70;2.10;;;;;;;;;;4958921;28;20460;-61
2021/03/05 07:48:42;;;;;;;2.00;1.73;;;;;;;;;;4969635;28;20525;-61
2021/03/05 07:51:09;;;;;;;3.23;1.57;;;;;;;;;;4971558;28;20475;-61
2021/03/05 07:53:49;;;;;;;5.27;2.10;;;;;;;;;;4982772;28;20451;-61
2021/03/05 07:56:30;;;;;;;3.17;1.67;;;;;;;;;;4971623;28;20447;-61
2021/03/05 07:58:58;;;;;;;3.37;2.10;;;;;;;;;;4971710;28;20962;-61
2021/03/05 08:01:51;;;;;;;7.60;3.20;;;;;;;;;;4968833;28;20483;-61
2021/03/05 08:04:18;;;;;;;5.90;3.83;;;;;;;;;;4968376;28;21614;-63
2021/03/05 08:06:44;;;;;;;7.67;3.67;;;;;;;;;;4971585;28;20467;-63
2021/03/05 08:09:11;;;;;;;5.20;3.97;;;;;;;;;;4972032;28;20503;-63
2021/03/05 08:11:39;;;;;;;4.47;3.03;;;;;;;;;;4970321;28;20497;-61
2021/03/05 08:14:29;;;;;;;3.67;3.37;;;;;;;;;;4971900;28;20452;-61
2021/03/05 08:16:57;;;;;;;4.27;3.63;;;;;;;;;;4954577;28;20463;-62
2021/03/05 08:19:45;;;;;;;8.47;4.10;;;;;;;;;;4971244;28;20949;-62
2021/03/05 08:22:12;;;;;;;5.37;3.60;;;;;;;;;;4970346;28;20476;-62
2021/03/05 08:24:42;;;;;;;5.67;3.70;;;;;;;;;;4972308;28;20483;-61
2021/03/05 08:27:10;;;;;;;4.60;3.33;;;;;;;;;;4973779;28;20474;-62
2021/03/05 08:30:04;;;;;;;5.30;4.07;;;;;;;;;;4974346;28;20554;-62
2021/03/05 08:32:49;;;;;;;4.57;3.97;;;;;;;;;;4967745;28;20474;-62
2021/03/05 08:35:17;;;;;;;6.23;3.50;;;;;;;;;;4973744;28;20546;-62
2021/03/05 08:37:44;;;;;;;4.53;3.50;;;;;;;;;;4973952;28;20471;-61
2021/03/05 08:40:30;;;;;;;4.80;3.70;;;;;;;;;;4982239;28;20500;-61
2021/03/05 08:42:57;;;;;;;5.37;3.50;;;;;;;;;;4972990;28;20474;-61
2021/03/05 08:45:26;;;;;;;4.73;3.00;;;;;;;;;;4975034;28;20455;-61
2021/03/05 08:47:54;;;;;;;6.30;3.50;;;;;;;;;;4973645;28;20501;-60
2021/03/05 08:50:22;;;;;;;5.50;3.73;;;;;;;;;;4973772;28;20495;-60
2021/03/05 08:52:50;;;;;;;2.87;2.67;;;;;;;;;;4972930;28;20468;-61
2021/03/05 08:55:19;;;;;;;4.73;3.20;;;;;;;;;;4973702;28;20471;-61
2021/03/05 08:57:46;;;;;;;5.70;3.00;;;;;;;;;;4974057;28;20462;-60
2021/03/05 09:00:15;;;;;;;4.20;3.10;;;;;;;;;;4975069;28;20475;-62
2021/03/05 09:02:42;;;;;;;3.40;2.87;;;;;;;;;;4972245;28;20460;-62
2021/03/05 09:05:09;;;;;;;4.73;3.33;;;;;;;;;;4972516;28;20468;-61
2021/03/05 09:07:50;;;;;;;6.13;2.97;;;;;;;;;;4974252;28;20599;-61
2021/03/05 09:10:17;;;;;;;6.37;3.80;;;;;;;;;;4973646;28;20619;-62
2021/03/05 09:12:57;;;;;;;3.50;3.10;;;;;;;;;;4973812;28;20442;-61
2021/03/05 09:15:28;;;;;;;6.83;3.37;;;;;;;;;;4971957;28;20467;-61
2021/03/05 09:17:54;;;;;;;4.30;3.23;;;;;;;;;;4974286;28;20455;-61
2021/03/05 09:20:21;;;;;;;5.17;3.13;;;;;;;;;;4973814;28;20491;-61
2021/03/05 09:22:48;;;;;;;4.17;2.57;;;;;;;;;;4974479;28;20511;-62
2021/03/05 09:25:15;;;;;;;6.10;2.70;;;;;;;;;;4973268;28;20546;-61
2021/03/05 09:27:43;;;;;;;7.03;2.30;;;;;;;;;;4971915;28;20926;-63
2021/03/05 09:30:19;;;;;;;5.40;2.73;;;;;;;;;;4974154;28;20460;-63
2021/03/05 09:32:47;;;;;;;3.83;2.63;;;;;;;;;;4974277;28;20447;-63
2021/03/05 09:35:14;;;;;;;4.00;2.33;;;;;;;;;;4971736;28;20467;-62
2021/03/05 09:37:40;;;;;;;3.50;2.00;;;;;;;;;;4973819;28;20443;-63
2021/03/05 09:40:09;;;;;;;3.70;2.20;;;;;;;;;;4972461;28;20480;-64
2021/03/05 09:42:50;;;;;;;10.13;3.23;;;;;;;;;;4972500;28;20463;-62
2021/03/05 09:45:33;;;;;;;19.23;3.20;;;;;;;;;;4970984;28;20475;-60
2021/03/05 09:48:00;;;;;;;13.13;3.17;;;;;;;;;;4971154;28;20468;-59
2021/03/05 09:50:27;;;;;;;13.90;3.33;;;;;;;;;;4972238;28;20487;-60
2021/03/05 09:52:54;;;;;;;13.90;2.87;;;;;;;;;;4968550;28;20974;-60
2021/03/05 09:55:28;;;;;;;13.40;2.90;;;;;;;;;;4966495;28;20471;-60
2021/03/05 09:57:55;;;;;;;7.53;2.50;;;;;;;;;;4964575;28;20475;-59
2021/03/05 10:00:27;;;;;;;11.03;3.10;;;;;;;;;;4956871;28;20838;-60
2021/03/05 10:03:01;;;;;;;6.97;2.07;;;;;;;;;;4971885;28;20467;-60
2021/03/05 10:05:28;;;;;;;4.80;1.70;;;;;;;;;;4971123;28;20469;-60
2021/03/05 10:07:55;;;;;;;7.13;1.73;;;;;;;;;;4974174;28;20451;-60
2021/03/05 10:10:21;;;;;;;7.63;2.70;;;;;;;;;;4972921;28;20487;-60
2021/03/05 10:12:51;;;;;;;6.23;1.83;;;;;;;;;;4972776;28;20464;-60
2021/03/05 10:15:19;;;;;;;7.83;1.70;;;;;;;;;;4973770;28;20451;-60
2021/03/05 10:17:45;;;;;;;2.70;1.30;;;;;;;;;;4973554;28;20447;-60
2021/03/05 10:20:12;;;;;;;2.67;1.60;;;;;;;;;;4973399;28;20471;-60
2021/03/05 10:22:39;;;;;;;3.10;1.30;;;;;;;;;;4973379;28;20514;-60
2021/03/05 10:25:06;;;;;;;3.00;1.70;;;;;;;;;;4973235;28;20487;-60
2021/03/05 10:27:40;;;;;;;6.43;1.40;;;;;;;;;;4973665;28;20451;-60
2021/03/05 10:30:08;;;;;;;2.17;1.40;;;;;;;;;;4970666;28;20469;-60
2021/03/05 10:32:37;;;;;;;2.83;1.10;;;;;;;;;;4974195;28;20467;-60
2021/03/05 10:35:05;;;;;;;1.73;1.03;;;;;;;;;;4973717;28;20454;-60
2021/03/05 10:37:32;;;;;;;4.00;1.10;;;;;;;;;;4972848;28;20465;-60
2021/03/05 10:39:58;;;;;;;3.30;1.50;;;;;;;;;;4989231;28;20461;-60
2021/03/05 10:42:25;;;;;;;2.50;1.37;;;;;;;;;;4983769;28;20977;-60
2021/03/05 10:44:52;;;;;;;1.90;1.03;;;;;;;;;;4973606;28;20507;-60
2021/03/05 10:47:19;;;;;;;3.00;1.33;;;;;;;;;;4972593;28;20548;-60
2021/03/05 10:49:47;;;;;;;2.67;1.03;;;;;;;;;;4973302;28;20451;-61
2021/03/05 10:52:15;;;;;;;2.23;1.13;;;;;;;;;;4973311;28;20479;-60
2021/03/05 10:54:42;;;;;;;1.80;0.90;;;;;;;;;;4992427;28;20451;-60
2021/03/05 10:57:09;;;;;;;3.10;1.10;;;;;;;;;;4975548;28;20506;-60
2021/03/05 10:59:36;;;;;;;2.60;1.23;;;;;;;;;;4973086;28;20459;-60
2021/03/05 11:02:02;;;;;;;2.03;1.10;;;;;;;;;;4972823;28;20488;-60
2021/03/05 11:04:29;;;;;;;1.70;1.03;;;;;;;;;;4989109;28;21012;-60
2021/03/05 11:06:56;;;;;;;1.97;1.10;;;;;;;;;;4973320;28;20460;-60
2021/03/05 11:09:25;;;;;;;3.40;1.00;;;;;;;;;;4973320;28;20447;-60
2021/03/05 11:11:51;;;;;;;2.40;1.17;;;;;;;;;;4972539;28;20487;-60
2021/03/05 11:14:18;;;;;;;3.43;1.30;;;;;;;;;;4972994;28;20455;-61
2021/03/05 11:16:45;;;;;;;1.70;1.03;;;;;;;;;;4972444;28;20488;-59
2021/03/05 11:19:11;;;;;;;1.60;1.03;;;;;;;;;;4971920;28;20877;-60
2021/03/05 11:21:38;;;;;;;2.13;1.10;;;;;;;;;;4972185;28;20471;-60
2021/03/05 11:24:07;;;;;;;3.13;1.00;;;;;;;;;;4972132;28;20498;-59
2021/03/05 11:26:33;;;;;;;1.87;1.20;;;;;;;;;;4972768;28;20455;-60
2021/03/05 11:29:00;;;;;;;2.07;1.00;;;;;;;;;;4969424;28;20455;-61
2021/03/05 11:31:27;;;;;;;3.70;1.23;;;;;;;;;;4971198;28;20483;-60
2021/03/05 11:33:53;;;;;;;1.60;0.80;;;;;;;;;;4971495;28;20451;-61
2021/03/05 11:36:20;;;;;;;1.57;0.90;;;;;;;;;;4986441;28;21083;-61
2021/03/05 11:38:49;;;;;;;2.80;1.00;;;;;;;;;;4972445;28;20460;-60
2021/03/05 11:41:17;;;;;;;1.53;1.20;;;;;;;;;;4971607;28;20479;-60
2021/03/05 11:43:44;;;;;;;2.70;1.50;;;;;;;;;;4972329;28;21013;-60
2021/03/05 11:46:11;;;;;;;2.23;1.00;;;;;;;;;;4971096;28;20954;-60
2021/03/05 11:48:38;;;;;;;1.77;1.10;;;;;;;;;;4988099;28;20450;-61
2021/03/05 11:51:05;;;;;;;1.97;1.30;;;;;;;;;;4971940;28;20472;-62
2021/03/05 11:53:31;;;;;;;1.70;1.20;;;;;;;;;;4970052;28;20470;-61
2021/03/05 11:55:58;;;;;;;1.73;1.40;;;;;;;;;;4975233;28;20455;-62
2021/03/05 11:58:25;;;;;;;2.03;1.20;;;;;;;;;;4972259;28;20451;-62
2021/03/05 12:00:52;;;;;;;2.90;1.50;;;;;;;;;;4975322;28;20478;-62
2021/03/05 12:03:19;;;;;;;1.90;1.30;;;;;;;;;;4976290;28;20483;-62
2021/03/05 12:05:45;;;;;;;1.47;1.07;;;;;;;;;;4975954;28;20455;-62
2021/03/05 12:08:12;;;;;;;2.70;1.47;;;;;;;;;;4975598;28;20947;-64
2021/03/05 12:10:39;;;;;;;1.77;1.40;;;;;;;;;;4974465;28;20546;-61
2021/03/05 12:13:05;;;;;;;1.87;1.30;;;;;;;;;;4975781;28;20459;-61
2021/03/05 12:15:33;;;;;;;1.90;1.10;;;;;;;;;;4974431;28;20525;-63
2021/03/05 12:18:00;;;;;;;1.90;1.50;;;;;;;;;;4974986;28;20514;-63
2021/03/05 12:20:26;;;;;;;3.07;1.53;;;;;;;;;;4976644;28;20483;-61
2021/03/05 12:22:53;;;;;;;2.93;1.30;;;;;;;;;;4974972;28;21033;-61
2021/03/05 12:25:20;;;;;;;3.57;1.40;;;;;;;;;;4989202;28;20479;-63
2021/03/05 12:27:46;;;;;;;4.20;1.27;;;;;;;;;;4976644;28;20478;-63
2021/03/05 12:30:14;;;;;;;2.07;1.23;;;;;;;;;;4975731;28;20471;-63
2021/03/05 12:32:41;;;;;;;1.93;1.23;;;;;;;;;;4976134;28;20985;-62
2021/03/05 12:35:08;;;;;;;1.60;1.40;;;;;;;;;;4974780;28;20455;-62
2021/03/05 12:37:35;;;;;;;3.83;2.20;;;;;;;;;;4974369;28;20459;-62
2021/03/05 12:40:01;;;;;;;1.70;1.17;;;;;;;;;;4975752;28;20461;-62
2021/03/05 12:42:28;;;;;;;1.80;1.27;;;;;;;;;;4975353;28;20970;-62
2021/03/05 12:44:55;;;;;;;3.50;1.17;;;;;;;;;;4974705;28;20486;-62
2021/03/05 12:47:21;;;;;;;2.17;1.40;;;;;;;;;;4974961;28;20448;-62
2021/03/05 12:49:49;;;;;;;1.40;1.30;;;;;;;;;;4974585;28;20833;-62
2021/03/05 12:52:15;;;;;;;2.10;1.43;;;;;;;;;;4975028;28;21014;-60
2021/03/05 12:54:42;;;;;;;2.10;1.30;;;;;;;;;;4986539;28;20450;-60
2021/03/05 12:57:09;;;;;;;2.23;1.50;;;;;;;;;;4973504;28;21088;-60
2021/03/05 12:59:35;;;;;;;2.67;1.63;;;;;;;;;;4974069;28;20463;-60
2021/03/05 13:02:02;;;;;;;2.63;1.93;;;;;;;;;;4974431;28;20474;-62
2021/03/05 13:04:28;;;;;;;1.83;1.67;;;;;;;;;;4975018;28;20483;-63
2021/03/05 13:06:56;;;;;;;1.90;1.70;;;;;;;;;;4974778;28;20517;-60
2021/03/05 13:09:22;;;;;;;1.97;1.70;;;;;;;;;;4974673;28;20966;-62
2021/03/05 13:11:49;;;;;;;2.27;1.70;;;;;;;;;;4984703;23;20514;-64
2021/03/05 13:14:16;;;;;;;2.80;1.70;;;;;;;;;;4972855;28;21025;-66
2021/03/05 13:16:42;;;;;;;1.63;1.20;;;;;;;;;;4973774;28;20506;-65
2021/03/05 13:19:09;;;;;;;1.70;1.20;;;;;;;;;;4974101;28;20800;-65
2021/03/05 13:21:35;;;;;;;2.50;1.30;;;;;;;;;;4963917;28;20487;-65
2021/03/05 13:24:03;;;;;;;4.03;1.27;;;;;;;;;;4959683;28;20494;-65
2021/03/05 13:26:30;;;;;;;2.00;1.10;;;;;;;;;;4954883;29;20452;-65
2021/03/05 13:28:56;;;;;;;2.20;1.27;;;;;;;;;;4955121;29;20456;-65
2021/03/05 13:31:23;;;;;;;1.70;1.43;;;;;;;;;;4954793;28;20476;-65
2021/03/05 13:33:50;;;;;;;2.03;1.70;;;;;;;;;;4954730;29;20453;-65
2021/03/05 13:36:18;;;;;;;1.90;1.37;;;;;;;;;;4954045;28;20476;-65
2021/03/05 13:38:44;;;;;;;1.87;1.30;;;;;;;;;;4954651;29;20488;-65
2021/03/05 13:41:12;;;;;;;2.00;1.47;;;;;;;;;;4954393;28;20488;-65
2021/03/05 13:43:39;;;;;;;1.67;1.40;;;;;;;;;;4954307;28;20535;-65
2021/03/05 13:46:06;;;;;;;2.63;1.87;;;;;;;;;;4953846;29;20461;-65
2021/03/05 13:48:32;;;;;;;2.13;1.80;;;;;;;;;;4954395;29;20448;-64
2021/03/05 13:50:59;;;;;;;2.27;1.40;;;;;;;;;;4954555;29;20486;-65
2021/03/05 13:53:26;;;;;;;1.70;1.20;;;;;;;;;;4954623;29;20552;-65
2021/03/05 13:55:52;;;;;;;2.13;1.17;;;;;;;;;;4955281;28;21300;-64
2021/03/05 13:58:20;;;;;;;1.50;1.10;;;;;;;;;;4954045;29;20519;-65
2021/03/05 14:00:46;;;;;;;3.43;1.37;;;;;;;;;;4954258;28;20511;-64
2021/03/05 14:03:14;;;;;;;4.30;1.97;;;;;;;;;;4953407;29;20457;-65
2021/03/05 14:05:41;;;;;;;1.80;1.40;;;;;;;;;;4961024;28;20851;-65
2021/03/05 14:08:07;;;;;;;2.73;1.60;;;;;;;;;;4953904;28;20476;-64
2021/03/05 14:10:34;;;;;;;2.30;1.70;;;;;;;;;;4953630;28;20452;-64
2021/03/05 14:13:01;;;;;;;3.33;1.50;;;;;;;;;;4954057;29;20467;-63
2021/03/05 14:15:28;;;;;;;2.27;1.47;;;;;;;;;;4954751;29;21039;-64
2021/03/05 14:17:55;;;;;;;2.87;1.50;;;;;;;;;;4953899;29;20459;-64
2021/03/05 14:20:21;;;;;;;1.50;1.30;;;;;;;;;;4954036;29;20461;-64
2021/03/05 14:22:48;;;;;;;3.83;1.63;;;;;;;;;;4952789;28;20487;-64
2021/03/05 14:25:15;;;;;;;1.70;1.53;;;;;;;;;;4953388;29;20491;-64
2021/03/05 14:27:41;;;;;;;1.93;1.37;;;;;;;;;;4953470;28;20460;-65
2021/03/05 14:30:09;;;;;;;3.10;1.60;;;;;;;;;;4954024;29;20826;-64
2021/03/05 14:32:36;;;;;;;2.03;1.67;;;;;;;;;;4954567;28;20475;-64
2021/03/05 14:35:03;;;;;;;3.70;2.13;;;;;;;;;;4954595;29;20452;-64
2021/03/05 14:37:30;;;;;;;2.13;1.77;;;;;;;;;;4953991;28;20471;-64
2021/03/05 14:39:56;;;;;;;1.77;1.67;;;;;;;;;;4953497;29;20821;-64
2021/03/05 14:42:23;;;;;;;2.30;1.60;;;;;;;;;;4953408;28;21000;-64
2021/03/05 14:44:50;;;;;;;1.40;1.23;;;;;;;;;;4953038;28;20495;-64
2021/03/05 14:47:16;;;;;;;1.83;1.30;;;;;;;;;;4953286;29;20488;-64
2021/03/05 14:49:44;;;;;;;1.90;1.70;;;;;;;;;;4953593;29;20519;-64